Time;durP1;ratioP1;P1;durP2;ratioP2;P2;SDS_P1;SDS_P2;PMS_P1;PMS_P2;Temp;Humidity;BMP_temperature;BMP_pressure;BME280_temperature;BME280_humidity;BME280_pressure;Samples;Min_cycle;Max_cycle;Signal;HPM_P1;HPM_P2
2023/03/15 00:05:12;;;;;;;0.70;0.10;;;3.10;99.90;;;;;;25899066;22;20012;-41
2023/03/15 00:15:14;;;;;;;0.70;0.25;;;3.10;99.90;;;;;;25896401;22;20023;-41
2023/03/15 00:25:15;;;;;;;1.67;0.68;;;3.00;99.90;;;;;;25900292;22;20413;-41
2023/03/15 00:35:17;;;;;;;0.70;0.45;;;2.90;99.90;;;;;;25905682;22;20368;-41
2023/03/15 00:45:20;;;;;;;0.30;0.20;;;2.90;99.90;;;;;;25906915;22;20384;-41
2023/03/15 00:55:21;;;;;;;0.50;0.10;;;2.80;99.90;;;;;;25895055;22;20030;-41
2023/03/15 01:05:23;;;;;;;3.17;0.93;;;2.90;99.90;;;;;;25896206;22;20348;-40
2023/03/15 01:15:24;;;;;;;2.72;0.50;;;2.90;99.90;;;;;;25887257;22;20019;-40
2023/03/15 01:25:25;;;;;;;0.82;0.13;;;3.00;99.90;;;;;;25898374;22;20014;-41
2023/03/15 01:35:26;;;;;;;1.05;0.17;;;3.00;99.90;;;;;;25902050;22;20417;-40
2023/03/15 01:45:55;;;;;;;3.20;0.60;;;3.10;99.90;;;;;;25906581;22;20015;-40
2023/03/15 01:55:58;;;;;;;0.55;0.10;;;3.10;99.90;;;;;;25902395;22;20012;-41
2023/03/15 02:06:03;;;;;;;0.22;0.10;;;3.00;99.90;;;;;;25873849;22;20008;-41
2023/03/15 02:16:05;;;;;;;0.93;0.40;;;2.90;99.90;;;;;;25900376;22;20015;-41
2023/03/15 02:26:22;;;;;;;2.63;1.25;;;2.80;99.90;;;;;;25913283;22;20016;-41
2023/03/15 02:36:25;;;;;;;;;;;2.60;99.90;;;;;;25880895;22;20066;-41
2023/03/15 02:46:27;;;;;;;0.98;0.20;;;2.60;99.90;;;;;;25904245;22;19907;-40
2023/03/15 02:56:32;;;;;;;1.45;0.20;;;2.70;99.90;;;;;;25837694;22;20238;-41
2023/03/15 03:06:42;;;;;;;1.33;0.38;;;2.70;99.90;;;;;;25858405;22;20008;-41
2023/03/15 03:17:03;;;;;;;7.03;0.77;;;2.70;99.90;;;;;;25806099;22;20396;-41
2023/03/15 03:27:07;;;;;;;1.48;0.20;;;2.50;99.90;;;;;;25845247;22;20022;-41
2023/03/15 03:37:08;;;;;;;1.13;0.32;;;2.40;99.90;;;;;;25876687;22;20024;-41
2023/03/15 03:47:11;;;;;;;1.35;0.20;;;2.30;99.90;;;;;;25872323;22;20011;-41
2023/03/15 03:57:32;;;;;;;0.35;0.10;;;2.30;99.90;;;;;;25827842;22;20389;-41
2023/03/15 04:07:33;;;;;;;0.88;0.30;;;2.40;99.90;;;;;;25906237;22;20008;-41
2023/03/15 04:17:34;;;;;;;0.75;0.30;;;2.60;99.90;;;;;;25923187;22;20018;-41
2023/03/15 04:27:58;;;;;;;1.00;0.43;;;2.60;99.90;;;;;;25848145;22;20455;-41
2023/03/15 04:38:26;;;;;;;2.08;0.98;;;2.60;99.90;;;;;;25931442;22;20085;-41
2023/03/15 04:48:47;;;;;;;0.93;0.45;;;2.60;99.90;;;;;;25840175;22;20011;-41
2023/03/15 04:59:09;;;;;;;0.65;0.38;;;2.50;99.90;;;;;;25875043;22;20404;-41
2023/03/15 05:09:36;;;;;;;1.90;0.65;;;2.50;99.90;;;;;;25880332;22;20069;-41
2023/03/15 05:20:00;;;;;;;4.23;2.63;;;2.60;99.90;;;;;;25928537;22;20015;-41
2023/03/15 05:30:21;;;;;;;2.45;1.00;;;2.60;99.90;;;;;;25927940;22;20015;-41
2023/03/15 05:40:46;;;;;;;8.48;2.08;;;2.60;99.90;;;;;;25940484;22;20023;-41
2023/03/15 05:51:07;;;;;;;3.17;0.32;;;2.60;99.90;;;;;;25891371;22;20019;-41
2023/03/15 06:01:28;;;;;;;7.82;0.40;;;2.50;99.90;;;;;;25856569;22;20515;-41
2023/03/15 06:11:49;;;;;;;9.05;0.43;;;2.40;99.90;;;;;;25822311;22;20019;-41
2023/03/15 06:22:10;;;;;;;0.82;0.20;;;2.30;99.90;;;;;;25843901;22;20046;-41
2023/03/15 06:32:31;;;;;;;1.95;0.40;;;2.20;99.90;;;;;;25862547;22;20066;-41
2023/03/15 06:42:53;;;;;;;0.57;0.20;;;2.00;99.90;;;;;;25866663;22;20031;-41
2023/03/15 06:53:14;;;;;;;1.50;0.45;;;2.10;99.90;;;;;;25892876;22;20042;-41
2023/03/15 07:03:35;;;;;;;0.60;0.20;;;2.20;99.90;;;;;;25887127;22;20081;-41
2023/03/15 07:13:57;;;;;;;3.17;0.93;;;2.30;99.90;;;;;;25849647;22;20457;-41
2023/03/15 07:24:18;;;;;;;2.10;0.60;;;2.40;99.90;;;;;;25952047;22;20170;-41
2023/03/15 07:34:39;;;;;;;0.65;0.20;;;2.60;99.90;;;;;;25950477;22;20015;-41
2023/03/15 07:45:00;;;;;;;3.17;1.00;;;2.80;99.90;;;;;;25918064;22;20019;-41
2023/03/15 07:55:21;;;;;;;2.10;0.80;;;3.10;99.90;;;;;;25951389;22;20425;-41
2023/03/15 08:05:42;;;;;;;1.45;0.52;;;3.50;99.90;;;;;;25947255;22;20101;-41
2023/03/15 08:16:03;;;;;;;0.98;0.30;;;3.80;99.90;;;;;;25948875;22;20016;-42
2023/03/15 08:26:25;;;;;;;0.85;0.40;;;4.00;87.70;;;;;;25951601;22;20008;-42
2023/03/15 08:36:46;;;;;;;1.65;0.65;;;4.40;67.00;;;;;;25948084;22;20023;-42
2023/03/15 08:47:07;;;;;;;3.33;0.85;;;4.70;13.10;;;;;;25950310;22;20113;-42
2023/03/15 08:57:31;;;;;;;5.40;0.65;;;5.00;1.00;;;;;;25950135;22;20011;-42
2023/03/15 09:07:52;;;;;;;1.30;0.60;;;5.30;1.00;;;;;;25948993;22;20073;-42
2023/03/15 09:18:13;;;;;;;2.10;0.20;;;5.80;1.00;;;;;;25949047;22;20527;-42
2023/03/15 09:28:34;;;;;;;0.82;0.30;;;6.30;1.00;;;;;;25951038;22;20384;-42
2023/03/15 09:38:56;;;;;;;2.85;0.65;;;6.40;1.00;;;;;;25955690;22;20023;-42
2023/03/15 09:49:28;;;;;;;0.45;0.10;;;7.00;1.00;;;;;;25955577;22;20081;-42
2023/03/15 09:59:52;;;;;;;1.40;0.40;;;7.30;1.00;;;;;;25955964;22;20046;-42
2023/03/15 10:10:16;;;;;;;0.73;0.30;;;7.40;1.00;;;;;;25954468;22;20012;-42
2023/03/15 10:20:48;;;;;;;4.05;0.98;;;7.30;1.00;;;;;;25956675;22;20033;-42
2023/03/15 10:31:17;;;;;;;1.27;0.63;;;7.70;1.00;;;;;;25953614;22;20011;-42
2023/03/15 10:41:39;;;;;;;2.28;0.25;;;8.00;1.00;;;;;;25954752;22;20057;-42
2023/03/15 10:52:01;;;;;;;2.05;0.35;;;8.10;1.00;;;;;;25953331;22;20022;-42
2023/03/15 11:02:23;;;;;;;2.90;0.85;;;8.60;1.00;;;;;;25953896;22;20401;-42
2023/03/15 11:12:44;;;;;;;9.80;0.50;;;8.70;1.00;;;;;;25930936;22;20066;-42
2023/03/15 11:23:17;;;;;;;4.65;0.60;;;9.50;1.00;;;;;;25950707;22;20015;-43
2023/03/15 11:33:57;;;;;;;1.08;0.40;;;10.40;1.00;;;;;;25952422;22;20016;-42
2023/03/15 11:44:24;;;;;;;1.33;0.30;;;10.70;1.00;;;;;;25953788;22;20019;-42
2023/03/15 11:54:45;;;;;;;1.67;0.40;;;11.30;1.00;;;;;;25950944;22;20011;-42
2023/03/15 12:05:06;;;;;;;1.67;0.40;;;11.40;1.00;;;;;;25951154;22;20390;-42
2023/03/15 12:15:27;;;;;;;1.52;0.45;;;11.70;1.00;;;;;;25949909;22;20019;-42
2023/03/15 12:25:53;;;;;;;3.55;1.15;;;11.60;1.00;;;;;;25950071;22;20065;-43
2023/03/15 12:36:36;;;;;;;5.82;0.50;;;12.20;1.00;;;;;;25948219;22;20024;-42
2023/03/15 12:47:15;;;;;;;2.15;0.30;;;12.60;1.00;;;;;;25949631;22;20457;-42
2023/03/15 12:57:45;;;;;;;0.57;0.30;;;12.80;1.00;;;;;;25950690;22;20015;-42
2023/03/15 13:08:28;;;;;;;1.33;0.50;;;12.70;1.00;;;;;;25957925;22;20011;-42
2023/03/15 13:18:58;;;;;;;0.20;0.10;;;12.40;1.00;;;;;;25963471;22;20073;-41
2023/03/15 13:29:29;;;;;;;1.10;0.30;;;12.70;1.00;;;;;;25956598;22;20011;-41
2023/03/15 13:40:00;;;;;;;1.45;0.57;;;12.60;1.00;;;;;;25949684;22;20020;-41
2023/03/15 13:50:21;;;;;;;0.45;0.10;;;12.90;1.00;;;;;;25894131;22;20046;-42
2023/03/15 14:00:42;;;;;;;0.20;0.10;;;12.80;1.00;;;;;;25946074;22;20012;-40
2023/03/15 14:11:03;;;;;;;0.50;0.20;;;13.30;1.00;;;;;;25931156;22;20007;-41
2023/03/15 14:21:31;;;;;;;1.73;0.40;;;12.60;1.00;;;;;;25937146;22;20016;-41
2023/03/15 14:31:52;;;;;;;2.33;0.20;;;11.90;1.00;;;;;;25878357;22;20008;-41
2023/03/15 14:41:53;;;;;;;0.65;0.20;;;11.90;1.00;;;;;;25921783;22;20261;-41
2023/03/15 14:52:01;;;;;;;0.82;0.20;;;11.30;1.00;;;;;;25904045;22;20015;-41
2023/03/15 15:02:03;;;;;;;0.80;0.30;;;10.50;1.00;;;;;;25914392;22;20012;-41
2023/03/15 15:12:04;;;;;;;0.80;0.20;;;10.30;1.00;;;;;;25895449;22;20015;-41
2023/03/15 15:22:05;;;;;;;1.98;0.50;;;10.10;1.00;;;;;;25883430;22;20190;-41
2023/03/15 15:32:06;;;;;;;0.85;0.55;;;9.90;1.00;;;;;;25902870;22;20444;-41
2023/03/15 15:42:09;;;;;;;0.43;0.17;;;9.60;1.00;;;;;;25891234;22;20468;-41
2023/03/15 15:52:11;;;;;;;0.52;0.20;;;9.60;1.00;;;;;;25905624;22;20016;-42
2023/03/15 16:02:16;;;;;;;2.25;0.20;;;9.60;1.00;;;;;;25885809;22;20025;-43
2023/03/15 16:12:18;;;;;;;1.75;0.52;;;9.70;1.00;;;;;;25892292;22;20290;-42
2023/03/15 16:22:21;;;;;;;1.15;0.63;;;9.30;1.00;;;;;;25906566;22;20015;-42
2023/03/15 16:32:24;;;;;;;1.33;0.30;;;9.10;1.00;;;;;;25897486;22;21513;-43
2023/03/15 16:42:25;;;;;;;1.17;0.47;;;9.00;1.00;;;;;;25866761;22;20024;-42
2023/03/15 16:52:26;;;;;;;1.50;0.50;;;8.80;1.00;;;;;;25895808;22;20361;-43
2023/03/15 17:02:27;;;;;;;0.45;0.17;;;8.70;1.00;;;;;;25911670;22;20020;-42
2023/03/15 17:12:28;;;;;;;1.20;0.65;;;8.60;1.00;;;;;;25924169;22;20020;-43
2023/03/15 17:22:29;;;;;;;0.60;0.20;;;8.60;1.00;;;;;;25924530;22;20454;-43
2023/03/15 17:32:30;;;;;;;0.95;0.43;;;8.40;1.00;;;;;;25921331;22;20016;-42
2023/03/15 17:42:31;;;;;;;1.58;0.38;;;8.20;1.00;;;;;;25912246;22;20026;-42
2023/03/15 17:52:33;;;;;;;1.67;0.40;;;8.10;1.00;;;;;;25907521;22;20024;-42
2023/03/15 18:02:34;;;;;;;3.35;0.50;;;8.00;1.00;;;;;;25908986;22;20015;-42
2023/03/15 18:12:35;;;;;;;2.10;1.23;;;7.90;1.00;;;;;;25908658;22;20134;-42
2023/03/15 18:22:36;;;;;;;1.40;0.50;;;7.70;1.00;;;;;;25917390;22;20007;-42
2023/03/15 18:32:38;;;;;;;4.50;1.25;;;7.70;1.00;;;;;;25900991;22;20361;-43
2023/03/15 18:42:40;;;;;;;1.88;0.43;;;7.60;1.00;;;;;;25906492;22;20024;-42
2023/03/15 18:52:42;;;;;;;2.13;0.73;;;7.60;1.00;;;;;;25907029;22;20020;-43
2023/03/15 19:02:44;;;;;;;1.48;0.75;;;7.50;1.00;;;;;;25907323;22;20015;-40
2023/03/15 19:12:47;;;;;;;0.65;0.40;;;7.50;1.00;;;;;;25910768;22;20177;-40
2023/03/15 19:22:49;;;;;;;3.10;0.95;;;7.40;1.00;;;;;;25907751;22;20621;-41
2023/03/15 19:32:51;;;;;;;1.65;0.82;;;7.30;1.00;;;;;;25905828;22;20015;-40
2023/03/15 19:42:52;;;;;;;1.95;1.00;;;7.30;1.00;;;;;;25900303;22;20016;-40
2023/03/15 19:52:53;;;;;;;6.03;1.73;;;7.30;1.00;;;;;;25903366;22;20024;-40
2023/03/15 20:02:54;;;;;;;3.05;1.42;;;7.20;1.00;;;;;;25906678;22;20018;-40
2023/03/15 20:12:58;;;;;;;3.47;1.38;;;7.20;1.00;;;;;;25909366;22;20011;-41
2023/03/15 20:22:59;;;;;;;2.05;1.00;;;7.20;1.00;;;;;;25914775;22;20015;-40
2023/03/15 20:33:00;;;;;;;6.15;1.92;;;7.00;1.00;;;;;;25911912;22;20026;-40
2023/03/15 20:43:04;;;;;;;1.83;0.80;;;7.00;1.00;;;;;;25916201;22;20045;-40
2023/03/15 20:53:05;;;;;;;3.33;1.30;;;6.90;1.00;;;;;;25914926;22;20467;-41
2023/03/15 21:03:09;;;;;;;3.47;1.23;;;7.00;1.00;;;;;;25913303;22;20019;-41
2023/03/15 21:13:10;;;;;;;3.15;1.33;;;6.90;1.00;;;;;;25915169;22;20076;-40
2023/03/15 21:23:11;;;;;;;3.30;1.45;;;6.90;1.00;;;;;;25915124;22;20019;-40
2023/03/15 21:33:12;;;;;;;6.03;1.67;;;6.90;1.00;;;;;;25925717;22;20026;-40
2023/03/15 21:43:13;;;;;;;3.17;1.52;;;6.90;1.00;;;;;;25894741;22;20345;-40
2023/03/15 21:53:14;;;;;;;4.15;1.85;;;6.80;1.00;;;;;;25922027;22;20305;-40
2023/03/15 22:03:15;;;;;;;4.35;1.55;;;6.70;1.00;;;;;;25929432;22;20272;-40
2023/03/15 22:13:16;;;;;;;2.83;1.27;;;6.70;1.00;;;;;;25934941;22;20118;-40
2023/03/15 22:23:17;;;;;;;2.78;1.52;;;6.60;1.00;;;;;;25932696;22;20083;-40
2023/03/15 22:33:21;;;;;;;3.83;1.88;;;6.50;1.00;;;;;;25928733;22;20562;-40
2023/03/15 22:43:22;;;;;;;2.17;1.25;;;6.40;1.00;;;;;;25916696;22;20016;-40
2023/03/15 22:53:23;;;;;;;3.35;2.05;;;6.40;1.00;;;;;;25921934;22;20349;-40
2023/03/15 23:03:25;;;;;;;3.90;2.17;;;6.30;1.00;;;;;;25918305;22;20350;-40
2023/03/15 23:13:26;;;;;;;10.55;2.33;;;6.20;1.00;;;;;;25921238;22;20321;-43
2023/03/15 23:23:27;;;;;;;2.90;1.88;;;6.20;1.00;;;;;;25914600;22;20016;-43
2023/03/15 23:33:28;;;;;;;4.45;1.20;;;6.10;1.00;;;;;;25911471;22;20208;-43
2023/03/15 23:43:30;;;;;;;2.80;1.30;;;6.10;1.00;;;;;;25920988;22;20106;-43
2023/03/15 23:53:31;;;;;;;3.10;1.48;;;6.10;1.00;;;;;;25916702;22;20445;-43
